Dewitt, Arkansas
Current Conditions -  °F | °C
As of 10:15 AM on Saturday 20 Dec 2014 (Local Time) from KSGT Reporting Station
Overcast Overcast  
Wind Chill: 39°   Ceiling: 6000
Heat Index: 43°   Visibility: NA
Dew Point: 36°   Wind: 6mph
Humidity: 76%   Direction: 60°ENE
Pressure: 30.3"   Gusts: NA
Location:  34.1937°N, 91.3321°W
Report Text: KSGT 201615Z 06005KT OVC060 06/02 A3030 RMK AO1
Loading
Personal Weather Stations






























Interactive Weather Map New forecast layout! Learn more

10-Day Weather Forecast

Advertisements
Track Severe Weather on mobile